sensor_id;sensor_type;location;lat;lon;timestamp;pressure;altitude;pressure_sealevel;temperature;humidity
27587;BME280;15019;49.002;8.420;2022-08-30T00:00:29;100392.84;;;20.25;72.71
27587;BME280;15019;49.002;8.420;2022-08-30T00:02:54;100398.22;;;20.19;71.37
27587;BME280;15019;49.002;8.420;2022-08-30T00:05:19;100401.69;;;20.18;73.51
27587;BME280;15019;49.002;8.420;2022-08-30T00:07:45;100400.63;;;20.01;73.39
27587;BME280;15019;49.002;8.420;2022-08-30T00:10:10;100402.75;;;19.90;75.26
27587;BME280;15019;49.002;8.420;2022-08-30T00:12:35;100401.06;;;19.89;75.43
27587;BME280;15019;49.002;8.420;2022-08-30T00:15:00;100398.66;;;19.85;72.90
27587;BME280;15019;49.002;8.420;2022-08-30T00:17:26;100402.59;;;19.93;71.71
27587;BME280;15019;49.002;8.420;2022-08-30T00:19:51;100405.19;;;19.93;70.83
27587;BME280;15019;49.002;8.420;2022-08-30T00:22:16;100400.72;;;19.98;69.84
27587;BME280;15019;49.002;8.420;2022-08-30T00:24:41;100396.31;;;20.02;69.08
27587;BME280;15019;49.002;8.420;2022-08-30T00:27:07;100403.94;;;20.03;68.84
27587;BME280;15019;49.002;8.420;2022-08-30T00:29:32;100403.94;;;20.03;68.86
27587;BME280;15019;49.002;8.420;2022-08-30T00:31:57;100415.91;;;20.04;68.06
27587;BME280;15019;49.002;8.420;2022-08-30T00:34:22;100403.84;;;20.06;67.41
27587;BME280;15019;49.002;8.420;2022-08-30T00:36:47;100401.94;;;20.12;67.96
27587;BME280;15019;49.002;8.420;2022-08-30T00:39:13;100406.22;;;20.13;68.55
27587;BME280;15019;49.002;8.420;2022-08-30T00:41:38;100395.13;;;20.10;68.28
27587;BME280;15019;49.002;8.420;2022-08-30T00:44:03;100402.06;;;20.08;68.31
27587;BME280;15019;49.002;8.420;2022-08-30T00:46:29;100403.84;;;20.06;67.20
27587;BME280;15019;49.002;8.420;2022-08-30T00:48:54;100402.06;;;20.08;66.76
27587;BME280;15019;49.002;8.420;2022-08-30T00:51:20;100403.00;;;20.06;66.95
27587;BME280;15019;49.002;8.420;2022-08-30T00:53:46;100397.13;;;20.02;67.76
27587;BME280;15019;49.002;8.420;2022-08-30T00:56:12;100401.63;;;19.97;68.48
27587;BME280;15019;49.002;8.420;2022-08-30T00:58:39;100399.78;;;20.01;68.10
27587;BME280;15019;49.002;8.420;2022-08-30T01:01:06;100403.94;;;20.03;67.91
27587;BME280;15019;49.002;8.420;2022-08-30T01:03:32;100405.88;;;19.98;68.14
27587;BME280;15019;49.002;8.420;2022-08-30T01:05:58;100406.06;;;19.92;68.58
27587;BME280;15019;49.002;8.420;2022-08-30T01:08:23;100405.97;;;19.95;69.15
27587;BME280;15019;49.002;8.420;2022-08-30T01:10:49;100408.53;;;19.95;70.75
27587;BME280;15019;49.002;8.420;2022-08-30T01:13:15;100400.81;;;19.95;68.87
27587;BME280;15019;49.002;8.420;2022-08-30T01:15:41;100405.03;;;19.98;68.42
27587;BME280;15019;49.002;8.420;2022-08-30T01:18:07;100398.09;;;20.00;68.55
27587;BME280;15019;49.002;8.420;2022-08-30T01:20:37;100405.88;;;19.98;68.24
27587;BME280;15019;49.002;8.420;2022-08-30T01:25:28;100396.63;;;19.93;68.67
27587;BME280;15019;49.002;8.420;2022-08-30T01:27:57;100396.56;;;19.94;68.39
27587;BME280;15019;49.002;8.420;2022-08-30T01:30:23;100394.13;;;19.91;67.92
27587;BME280;15019;49.002;8.420;2022-08-30T01:32:49;100396.75;;;19.90;67.54
27587;BME280;15019;49.002;8.420;2022-08-30T01:35:15;100392.56;;;19.87;67.75
27587;BME280;15019;49.002;8.420;2022-08-30T01:37:41;100389.09;;;19.88;67.24
27587;BME280;15019;49.002;8.420;2022-08-30T01:40:07;100390.19;;;19.81;67.61
27587;BME280;15019;49.002;8.420;2022-08-30T01:42:32;100391.94;;;19.81;67.67
27587;BME280;15019;49.002;8.420;2022-08-30T01:44:57;100398.13;;;19.75;68.47
27587;BME280;15019;49.002;8.420;2022-08-30T01:47:23;100396.47;;;19.74;68.33
27587;BME280;15019;49.002;8.420;2022-08-30T01:49:48;100392.19;;;19.73;68.15
27587;BME280;15019;49.002;8.420;2022-08-30T01:52:14;100404.41;;;19.68;69.06
27587;BME280;15019;49.002;8.420;2022-08-30T01:54:40;100401.09;;;19.64;68.56
27587;BME280;15019;49.002;8.420;2022-08-30T01:57:07;100401.84;;;19.68;68.09
27587;BME280;15019;49.002;8.420;2022-08-30T01:59:33;100398.47;;;19.66;68.49
27587;BME280;15019;49.002;8.420;2022-08-30T02:01:58;100390.69;;;19.67;68.91
27587;BME280;15019;49.002;8.420;2022-08-30T02:04:23;100385.84;;;19.60;68.84
27587;BME280;15019;49.002;8.420;2022-08-30T02:06:49;100385.16;;;19.55;68.57
27587;BME280;15019;49.002;8.420;2022-08-30T02:09:14;100388.63;;;19.54;69.52
27587;BME280;15019;49.002;8.420;2022-08-30T02:11:39;100386.22;;;19.49;69.27
27587;BME280;15019;49.002;8.420;2022-08-30T02:14:04;100376.06;;;19.45;70.20
27587;BME280;15019;49.002;8.420;2022-08-30T02:16:30;100381.25;;;19.43;70.40
27587;BME280;15019;49.002;8.420;2022-08-30T02:18:55;100390.78;;;19.39;70.62
27587;BME280;15019;49.002;8.420;2022-08-30T02:21:21;100402.97;;;19.34;70.79
27587;BME280;15019;49.002;8.420;2022-08-30T02:23:46;100392.75;;;19.33;71.28
27587;BME280;15019;49.002;8.420;2022-08-30T02:26:12;100390.16;;;19.33;71.36
27587;BME280;15019;49.002;8.420;2022-08-30T02:28:37;100393.81;;;19.27;71.75
27587;BME280;15019;49.002;8.420;2022-08-30T02:31:02;100390.44;;;19.25;72.21
27587;BME280;15019;49.002;8.420;2022-08-30T02:33:27;100385.50;;;19.19;72.41
27587;BME280;15019;49.002;8.420;2022-08-30T02:35:53;100387.31;;;19.17;72.39
27587;BME280;15019;49.002;8.420;2022-08-30T02:38:18;100377.25;;;19.10;72.83
27587;BME280;15019;49.002;8.420;2022-08-30T02:40:43;100378.19;;;19.07;72.92
27587;BME280;15019;49.002;8.420;2022-08-30T02:43:08;100372.25;;;19.07;73.45
27587;BME280;15019;49.002;8.420;2022-08-30T02:45:34;100374.84;;;19.05;73.76
27587;BME280;15019;49.002;8.420;2022-08-30T02:47:59;100363.00;;;19.01;74.50
27587;BME280;15019;49.002;8.420;2022-08-30T02:50:24;100368.19;;;18.99;74.45
27587;BME280;15019;49.002;8.420;2022-08-30T02:52:49;100359.06;;;18.91;74.89
27587;BME280;15019;49.002;8.420;2022-08-30T02:55:15;100358.16;;;18.92;74.90
27587;BME280;15019;49.002;8.420;2022-08-30T02:57:41;100354.78;;;18.90;75.48
27587;BME280;15019;49.002;8.420;2022-08-30T03:00:07;100355.63;;;18.90;75.75
27587;BME280;15019;49.002;8.420;2022-08-30T03:02:32;100351.44;;;18.88;75.96
27587;BME280;15019;49.002;8.420;2022-08-30T03:04:58;100346.28;;;18.88;76.28
27587;BME280;15019;49.002;8.420;2022-08-30T03:07:23;100356.78;;;18.82;77.50
27587;BME280;15019;49.002;8.420;2022-08-30T03:09:48;100358.56;;;18.80;76.57
27587;BME280;15019;49.002;8.420;2022-08-30T03:12:13;100356.88;;;18.79;76.54
27587;BME280;15019;49.002;8.420;2022-08-30T03:14:38;100354.16;;;18.83;76.31
27587;BME280;15019;49.002;8.420;2022-08-30T03:17:05;100349.88;;;18.84;75.15
27587;BME280;15019;49.002;8.420;2022-08-30T03:19:30;100355.84;;;18.84;75.15
27587;BME280;15019;49.002;8.420;2022-08-30T03:21:55;100355.00;;;18.84;74.84
27587;BME280;15019;49.002;8.420;2022-08-30T03:24:20;100355.09;;;18.81;74.58
27587;BME280;15019;49.002;8.420;2022-08-30T03:26:46;100347.25;;;18.85;74.81
27587;BME280;15019;49.002;8.420;2022-08-30T03:29:11;100346.34;;;18.86;75.14
27587;BME280;15019;49.002;8.420;2022-08-30T03:31:36;100341.28;;;18.85;74.95
27587;BME280;15019;49.002;8.420;2022-08-30T03:34:02;100344.81;;;18.81;75.24
27587;BME280;15019;49.002;8.420;2022-08-30T03:36:27;100350.06;;;18.78;75.21
27587;BME280;15019;49.002;8.420;2022-08-30T03:38:52;100352.78;;;18.73;75.82
27587;BME280;15019;49.002;8.420;2022-08-30T03:41:17;100352.97;;;18.67;76.38
27587;BME280;15019;49.002;8.420;2022-08-30T03:43:43;100344.47;;;18.65;76.83
27587;BME280;15019;49.002;8.420;2022-08-30T03:46:08;100352.25;;;18.63;76.96
27587;BME280;15019;49.002;8.420;2022-08-30T03:48:34;100349.59;;;18.65;77.26
27587;BME280;15019;49.002;8.420;2022-08-30T03:50:59;100350.56;;;18.62;77.25
27587;BME280;15019;49.002;8.420;2022-08-30T03:53:25;100354.13;;;18.58;77.34
27587;BME280;15019;49.002;8.420;2022-08-30T03:55:50;100350.72;;;18.56;77.44
27587;BME280;15019;49.002;8.420;2022-08-30T03:58:15;100356.91;;;18.51;77.46
27587;BME280;15019;49.002;8.420;2022-08-30T04:00:40;100355.31;;;18.47;77.96
27587;BME280;15019;49.002;8.420;2022-08-30T04:03:05;100356.16;;;18.47;77.76
27587;BME280;15019;49.002;8.420;2022-08-30T04:05:31;100349.25;;;18.49;77.98
27587;BME280;15019;49.002;8.420;2022-08-30T04:07:56;100361.25;;;18.49;78.33
27587;BME280;15019;49.002;8.420;2022-08-30T04:10:21;100352.06;;;18.42;79.14
27587;BME280;15019;49.002;8.420;2022-08-30T04:12:47;100346.97;;;18.40;78.95
27587;BME280;15019;49.002;8.420;2022-08-30T04:15:13;100350.50;;;18.36;78.98
27587;BME280;15019;49.002;8.420;2022-08-30T04:17:38;100351.41;;;18.35;78.79
27587;BME280;15019;49.002;8.420;2022-08-30T04:20:03;100354.00;;;18.34;79.05
27587;BME280;15019;49.002;8.420;2022-08-30T04:22:29;100358.28;;;18.33;78.70
27587;BME280;15019;49.002;8.420;2022-08-30T04:24:54;100360.09;;;18.31;79.04
27587;BME280;15019;49.002;8.420;2022-08-30T04:27:19;100357.56;;;18.29;79.65
27587;BME280;15019;49.002;8.420;2022-08-30T04:29:45;100363.66;;;18.25;79.52
27587;BME280;15019;49.002;8.420;2022-08-30T04:32:10;100362.00;;;18.24;79.88
27587;BME280;15019;49.002;8.420;2022-08-30T04:34:35;100358.59;;;18.24;80.32
27587;BME280;15019;49.002;8.420;2022-08-30T04:37:00;100356.22;;;18.18;81.12
27587;BME280;15019;49.002;8.420;2022-08-30T04:39:26;100355.41;;;18.16;80.79
27587;BME280;15019;49.002;8.420;2022-08-30T04:41:51;100352.94;;;18.13;81.36
27587;BME280;15019;49.002;8.420;2022-08-30T04:44:16;100362.59;;;18.05;81.99
27587;BME280;15019;49.002;8.420;2022-08-30T04:46:41;100365.97;;;18.07;82.22
27587;BME280;15019;49.002;8.420;2022-08-30T04:49:07;100371.28;;;18.01;82.75
27587;BME280;15019;49.002;8.420;2022-08-30T04:51:32;100373.84;;;18.01;82.52
27587;BME280;15019;49.002;8.420;2022-08-30T04:53:57;100366.03;;;18.04;82.96
27587;BME280;15019;49.002;8.420;2022-08-30T04:56:22;100369.41;;;18.06;83.10
27587;BME280;15019;49.002;8.420;2022-08-30T04:58:49;100358.38;;;18.02;83.21
27587;BME280;15019;49.002;8.420;2022-08-30T05:01:15;100354.00;;;18.06;83.33
27587;BME280;15019;49.002;8.420;2022-08-30T05:03:41;100348.19;;;18.01;83.39
27587;BME280;15019;49.002;8.420;2022-08-30T05:06:09;100355.94;;;17.99;83.33
27587;BME280;15019;49.002;8.420;2022-08-30T05:08:35;100352.53;;;17.99;83.72
27587;BME280;15019;49.002;8.420;2022-08-30T05:11:02;100357.53;;;18.02;83.00
27587;BME280;15019;49.002;8.420;2022-08-30T05:13:28;100365.16;;;18.05;82.69
27587;BME280;15019;49.002;8.420;2022-08-30T05:15:53;100371.00;;;18.10;82.13
27587;BME280;15019;49.002;8.420;2022-08-30T05:18:18;100371.00;;;18.10;82.62
27587;BME280;15019;49.002;8.420;2022-08-30T05:20:43;100375.19;;;18.12;82.46
27587;BME280;15019;49.002;8.420;2022-08-30T05:23:08;100374.97;;;18.20;82.65
27587;BME280;15019;49.002;8.420;2022-08-30T05:25:35;100386.03;;;18.22;82.27
27587;BME280;15019;49.002;8.420;2022-08-30T05:28:01;100391.06;;;18.25;82.58
27587;BME280;15019;49.002;8.420;2022-08-30T05:30:26;100388.50;;;18.25;82.68
27587;BME280;15019;49.002;8.420;2022-08-30T05:32:52;100390.00;;;18.32;82.13
27587;BME280;15019;49.002;8.420;2022-08-30T05:35:17;100404.34;;;18.39;81.95
27587;BME280;15019;49.002;8.420;2022-08-30T05:37:43;100404.13;;;18.45;81.91
27587;BME280;15019;49.002;8.420;2022-08-30T05:40:09;100402.31;;;18.49;81.41
27587;BME280;15019;49.002;8.420;2022-08-30T05:42:34;100402.19;;;18.53;81.66
27587;BME280;15019;49.002;8.420;2022-08-30T05:45:00;100404.69;;;18.55;81.62
27587;BME280;15019;49.002;8.420;2022-08-30T05:47:25;100396.81;;;18.62;81.17
27587;BME280;15019;49.002;8.420;2022-08-30T05:49:53;100388.97;;;18.65;80.94
27587;BME280;15019;49.002;8.420;2022-08-30T05:52:18;100385.47;;;18.68;80.85
27587;BME280;15019;49.002;8.420;2022-08-30T05:54:44;100391.28;;;18.75;80.76
27587;BME280;15019;49.002;8.420;2022-08-30T05:57:09;100388.53;;;18.79;80.89
27587;BME280;15019;49.002;8.420;2022-08-30T05:59:35;100392.66;;;18.85;80.91
27587;BME280;15019;49.002;8.420;2022-08-30T06:02:00;100384.88;;;18.86;80.00
27587;BME280;15019;49.002;8.420;2022-08-30T06:04:25;100395.72;;;18.96;80.38
27587;BME280;15019;49.002;8.420;2022-08-30T06:06:51;100392.06;;;19.03;79.93
27587;BME280;15019;49.002;8.420;2022-08-30T06:09:16;100383.47;;;19.04;79.86
27587;BME280;15019;49.002;8.420;2022-08-30T06:11:42;100388.38;;;19.10;80.08
27587;BME280;15019;49.002;8.420;2022-08-30T06:14:08;100389.03;;;19.17;79.66
27587;BME280;15019;49.002;8.420;2022-08-30T06:16:33;100390.69;;;19.18;79.29
27587;BME280;15019;49.002;8.420;2022-08-30T06:18:59;100383.53;;;19.27;79.38
27587;BME280;15019;49.002;8.420;2022-08-30T06:21:28;100387.88;;;19.25;79.35
27587;BME280;15019;49.002;8.420;2022-08-30T06:23:54;100391.00;;;19.33;79.16
27587;BME280;15019;49.002;8.420;2022-08-30T06:26:19;100384.81;;;19.39;78.77
27587;BME280;15019;49.002;8.420;2022-08-30T06:28:45;100382.81;;;19.47;78.28
27587;BME280;15019;49.002;8.420;2022-08-30T06:31:12;100391.13;;;19.55;78.27
27587;BME280;15019;49.002;8.420;2022-08-30T06:33:37;100393.84;;;19.51;78.34
27587;BME280;15019;49.002;8.420;2022-08-30T06:36:07;100393.44;;;19.38;78.85
27587;BME280;15019;49.002;8.420;2022-08-30T06:38:32;100392.09;;;19.76;77.58
27587;BME280;15019;49.002;8.420;2022-08-30T06:40:58;100397.94;;;20.26;75.49
27587;BME280;15019;49.002;8.420;2022-08-30T06:43:23;100400.81;;;20.42;74.56
27587;BME280;15019;49.002;8.420;2022-08-30T06:45:48;100400.66;;;20.67;73.47
27587;BME280;15019;49.002;8.420;2022-08-30T06:48:13;100404.44;;;21.22;71.13
27587;BME280;15019;49.002;8.420;2022-08-30T06:50:39;100404.69;;;21.16;71.62
27587;BME280;15019;49.002;8.420;2022-08-30T06:53:04;100409.72;;;21.19;71.47
27587;BME280;15019;49.002;8.420;2022-08-30T06:55:29;100405.56;;;21.15;72.28
27587;BME280;15019;49.002;8.420;2022-08-30T06:57:54;100408.97;;;21.37;72.04
27587;BME280;15019;49.002;8.420;2022-08-30T07:00:19;100409.19;;;21.51;70.15
27587;BME280;15019;49.002;8.420;2022-08-30T07:02:45;100406.25;;;21.79;70.25
27587;BME280;15019;49.002;8.420;2022-08-30T07:05:10;100407.00;;;22.20;70.18
27587;BME280;15019;49.002;8.420;2022-08-30T07:07:35;100406.72;;;21.69;70.14
27587;BME280;15019;49.002;8.420;2022-08-30T07:10:02;100414.94;;;22.35;68.44
27587;BME280;15019;49.002;8.420;2022-08-30T07:12:28;100423.16;;;22.97;65.77
27587;BME280;15019;49.002;8.420;2022-08-30T07:14:53;100405.09;;;23.13;64.40
27587;BME280;15019;49.002;8.420;2022-08-30T07:17:18;100411.72;;;23.02;65.19
27587;BME280;15019;49.002;8.420;2022-08-30T07:19:43;100404.19;;;22.44;69.18
27587;BME280;15019;49.002;8.420;2022-08-30T07:22:08;100404.72;;;22.86;67.01
27587;BME280;15019;49.002;8.420;2022-08-30T07:24:34;100403.47;;;23.62;63.86
27587;BME280;15019;49.002;8.420;2022-08-30T07:26:59;100413.16;;;23.75;62.83
27587;BME280;15019;49.002;8.420;2022-08-30T07:29:24;100407.41;;;24.34;61.65
27587;BME280;15019;49.002;8.420;2022-08-30T07:31:49;100403.72;;;24.54;59.54
27587;BME280;15019;49.002;8.420;2022-08-30T07:34:14;100408.41;;;23.67;62.56
27587;BME280;15019;49.002;8.420;2022-08-30T07:36:40;100409.69;;;24.24;61.59
27587;BME280;15019;49.002;8.420;2022-08-30T07:39:05;100414.53;;;24.76;59.39
27587;BME280;15019;49.002;8.420;2022-08-30T07:41:32;100418.69;;;24.94;59.76
27587;BME280;15019;49.002;8.420;2022-08-30T07:43:57;100416.53;;;24.87;58.39
27587;BME280;15019;49.002;8.420;2022-08-30T07:46:23;100413.69;;;24.46;60.67
27587;BME280;15019;49.002;8.420;2022-08-30T07:48:48;100416.91;;;25.25;58.49
27587;BME280;15019;49.002;8.420;2022-08-30T07:51:16;100419.38;;;24.98;59.14
27587;BME280;15019;49.002;8.420;2022-08-30T07:53:41;100414.00;;;25.01;59.22
27587;BME280;15019;49.002;8.420;2022-08-30T07:56:07;100408.59;;;25.20;59.54
27587;BME280;15019;49.002;8.420;2022-08-30T07:58:32;100408.88;;;25.29;58.52
27587;BME280;15019;49.002;8.420;2022-08-30T08:00:58;100406.31;;;24.99;59.64
27587;BME280;15019;49.002;8.420;2022-08-30T08:03:26;100409.63;;;25.01;61.21
27587;BME280;15019;49.002;8.420;2022-08-30T08:05:52;100401.97;;;25.00;60.15
27587;BME280;15019;49.002;8.420;2022-08-30T08:08:17;100401.91;;;25.44;59.32
27587;BME280;15019;49.002;8.420;2022-08-30T08:10:43;100402.53;;;25.63;58.46
27587;BME280;15019;49.002;8.420;2022-08-30T08:13:08;100402.16;;;25.83;56.96
27587;BME280;15019;49.002;8.420;2022-08-30T08:15:33;100402.09;;;26.12;55.96
27587;BME280;15019;49.002;8.420;2022-08-30T08:17:59;100406.09;;;27.23;55.92
27587;BME280;15019;49.002;8.420;2022-08-30T08:20:24;100411.50;;;26.95;54.89
27587;BME280;15019;49.002;8.420;2022-08-30T08:22:49;100413.16;;;26.96;53.46
27587;BME280;15019;49.002;8.420;2022-08-30T08:25:14;100414.03;;;27.85;54.19
27587;BME280;15019;49.002;8.420;2022-08-30T08:27:39;100413.00;;;27.75;52.75
27587;BME280;15019;49.002;8.420;2022-08-30T08:30:05;100412.59;;;27.56;53.42
27587;BME280;15019;49.002;8.420;2022-08-30T08:32:30;100413.22;;;27.59;52.98
27587;BME280;15019;49.002;8.420;2022-08-30T08:34:55;100415.06;;;27.95;54.36
27587;BME280;15019;49.002;8.420;2022-08-30T08:37:21;100425.94;;;27.64;51.37
27587;BME280;15019;49.002;8.420;2022-08-30T08:39:46;100410.69;;;27.83;52.38
27587;BME280;15019;49.002;8.420;2022-08-30T08:42:28;100409.84;;;27.45;53.02
27587;BME280;15019;49.002;8.420;2022-08-30T08:45:07;100409.09;;;26.92;53.71
27587;BME280;15019;49.002;8.420;2022-08-30T08:50:19;100398.53;;;27.58;52.80
27587;BME280;15019;49.002;8.420;2022-08-30T08:55:11;100401.53;;;27.52;51.98
27587;BME280;15019;49.002;8.420;2022-08-30T08:57:37;100401.31;;;27.81;52.10
27587;BME280;15019;49.002;8.420;2022-08-30T09:00:06;100403.16;;;27.91;50.96
27587;BME280;15019;49.002;8.420;2022-08-30T09:02:38;100400.53;;;28.40;51.05
27587;BME280;15019;49.002;8.420;2022-08-30T09:05:04;100394.88;;;28.47;50.26
27587;BME280;15019;49.002;8.420;2022-08-30T09:07:31;100393.84;;;28.84;48.81
27587;BME280;15019;49.002;8.420;2022-08-30T09:10:00;100388.31;;;28.41;50.57
27587;BME280;15019;49.002;8.420;2022-08-30T09:12:26;100382.81;;;28.81;50.63
27587;BME280;15019;49.002;8.420;2022-08-30T09:14:53;100388.03;;;28.81;49.25
27587;BME280;15019;49.002;8.420;2022-08-30T09:17:19;100383.16;;;28.52;50.39
27587;BME280;15019;49.002;8.420;2022-08-30T09:19:45;100380.25;;;28.92;49.15
27587;BME280;15019;49.002;8.420;2022-08-30T09:22:30;100378.72;;;28.76;49.84
27587;BME280;15019;49.002;8.420;2022-08-30T09:25:07;100380.63;;;28.51;49.74
27587;BME280;15019;49.002;8.420;2022-08-30T09:27:34;100381.22;;;29.24;48.98
27587;BME280;15019;49.002;8.420;2022-08-30T09:30:02;100378.84;;;29.10;49.94
27587;BME280;15019;49.002;8.420;2022-08-30T09:32:40;100380.69;;;28.86;48.09
27587;BME280;15019;49.002;8.420;2022-08-30T09:35:17;100372.09;;;29.30;47.66
27587;BME280;15019;49.002;8.420;2022-08-30T09:40:13;100366.91;;;29.41;47.42
27587;BME280;15019;49.002;8.420;2022-08-30T09:42:39;100372.38;;;29.71;47.14
27587;BME280;15019;49.002;8.420;2022-08-30T09:45:04;100374.84;;;29.84;47.54
27587;BME280;15019;49.002;8.420;2022-08-30T09:47:36;100357.25;;;29.86;45.81
27587;BME280;15019;49.002;8.420;2022-08-30T09:50:05;100362.56;;;30.18;46.85
27587;BME280;15019;49.002;8.420;2022-08-30T09:59:55;100354.88;;;30.69;44.63
27587;BME280;15019;49.002;8.420;2022-08-30T10:05:04;100360.00;;;30.71;45.23
27587;BME280;15019;49.002;8.420;2022-08-30T10:07:41;100358.16;;;30.82;43.69
27587;BME280;15019;49.002;8.420;2022-08-30T10:10:12;100356.06;;;30.65;44.68
27587;BME280;15019;49.002;8.420;2022-08-30T10:17:52;100343.09;;;31.56;42.20
27587;BME280;15019;49.002;8.420;2022-08-30T10:20:40;100342.13;;;30.44;44.77
27587;BME280;15019;49.002;8.420;2022-08-30T10:25:39;100323.53;;;30.58;44.04
27587;BME280;15019;49.002;8.420;2022-08-30T10:28:08;100323.13;;;30.83;43.02
27587;BME280;15019;49.002;8.420;2022-08-30T10:30:36;100319.16;;;31.10;42.62
27587;BME280;15019;49.002;8.420;2022-08-30T10:33:05;100327.47;;;31.15;42.28
27587;BME280;15019;49.002;8.420;2022-08-30T10:35:33;100323.78;;;31.27;42.34
27587;BME280;15019;49.002;8.420;2022-08-30T10:38:04;100330.22;;;31.44;41.04
27587;BME280;15019;49.002;8.420;2022-08-30T10:40:35;100317.31;;;31.31;40.95
27587;BME280;15019;49.002;8.420;2022-08-30T10:43:03;100310.84;;;31.66;42.63
27587;BME280;15019;49.002;8.420;2022-08-30T10:45:32;100312.53;;;30.64;41.58
27587;BME280;15019;49.002;8.420;2022-08-30T10:48:10;100308.56;;;30.90;41.55
27587;BME280;15019;49.002;8.420;2022-08-30T10:50:41;100311.88;;;30.51;41.96
27587;BME280;15019;49.002;8.420;2022-08-30T10:53:09;100315.19;;;30.94;40.81
27587;BME280;15019;49.002;8.420;2022-08-30T10:55:37;100315.28;;;30.31;42.19
27587;BME280;15019;49.002;8.420;2022-08-30T10:58:04;100311.84;;;30.83;41.03
27587;BME280;15019;49.002;8.420;2022-08-30T11:00:32;100315.84;;;30.66;41.73
27587;BME280;15019;49.002;8.420;2022-08-30T11:05:31;100309.03;;;31.26;39.90
27587;BME280;15019;49.002;8.420;2022-08-30T11:11:08;100307.16;;;30.86;42.36
27587;BME280;15019;49.002;8.420;2022-08-30T11:13:35;100310.31;;;30.28;41.36
27587;BME280;15019;49.002;8.420;2022-08-30T11:16:04;100303.22;;;30.71;40.48
27587;BME280;15019;49.002;8.420;2022-08-30T11:18:31;100305.94;;;30.90;41.28
27587;BME280;15019;49.002;8.420;2022-08-30T11:23:54;100298.28;;;30.04;42.27
27587;BME280;15019;49.002;8.420;2022-08-30T11:29:29;100297.06;;;29.65;43.28
27587;BME280;15019;49.002;8.420;2022-08-30T11:37:09;100303.34;;;29.18;44.31
27587;BME280;15019;49.002;8.420;2022-08-30T11:47:47;100299.78;;;29.64;43.77
27587;BME280;15019;49.002;8.420;2022-08-30T11:50:56;100306.94;;;29.39;43.75
27587;BME280;15019;49.002;8.420;2022-08-30T11:53:13;100306.34;;;29.47;43.77
27587;BME280;15019;49.002;8.420;2022-08-30T12:00:31;100297.44;;;29.49;44.48
27587;BME280;15019;49.002;8.420;2022-08-30T12:03:01;100292.41;;;29.24;44.22
27587;BME280;15019;49.002;8.420;2022-08-30T12:08:01;100287.00;;;29.38;43.02
27587;BME280;15019;49.002;8.420;2022-08-30T12:10:46;100287.19;;;29.24;43.54
27587;BME280;15019;49.002;8.420;2022-08-30T12:16:00;100288.41;;;29.31;43.31
27587;BME280;15019;49.002;8.420;2022-08-30T12:18:27;100284.56;;;29.35;43.39
27587;BME280;15019;49.002;8.420;2022-08-30T12:20:54;100285.41;;;29.36;43.27
27587;BME280;15019;49.002;8.420;2022-08-30T12:23:39;100279.34;;;29.24;43.70
27587;BME280;15019;49.002;8.420;2022-08-30T12:28:49;100274.63;;;29.07;43.66
27587;BME280;15019;49.002;8.420;2022-08-30T12:31:17;100273.91;;;29.16;43.60
27587;BME280;15019;49.002;8.420;2022-08-30T12:33:43;100271.53;;;29.24;42.56
27587;BME280;15019;49.002;8.420;2022-08-30T12:39:08;100266.34;;;29.13;43.85
27587;BME280;15019;49.002;8.420;2022-08-30T12:41:33;100262.88;;;29.12;42.70
27587;BME280;15019;49.002;8.420;2022-08-30T12:43:59;100256.13;;;29.10;43.73
27587;BME280;15019;49.002;8.420;2022-08-30T12:46:24;100253.13;;;29.26;43.12
27587;BME280;15019;49.002;8.420;2022-08-30T12:48:50;100252.28;;;29.25;43.27
27587;BME280;15019;49.002;8.420;2022-08-30T12:54:15;100246.50;;;29.33;42.73
27587;BME280;15019;49.002;8.420;2022-08-30T12:57:34;100244.94;;;29.30;43.97
27587;BME280;15019;49.002;8.420;2022-08-30T12:59:52;100241.63;;;29.17;43.06
27587;BME280;15019;49.002;8.420;2022-08-30T13:04:42;100240.44;;;29.21;43.22
27587;BME280;15019;49.002;8.420;2022-08-30T13:07:08;100240.44;;;29.21;43.34
27587;BME280;15019;49.002;8.420;2022-08-30T13:09:38;100239.00;;;29.17;44.22
27587;BME280;15019;49.002;8.420;2022-08-30T13:12:25;100236.88;;;29.11;43.86
27587;BME280;15019;49.002;8.420;2022-08-30T13:14:49;100229.16;;;29.21;43.72
27587;BME280;15019;49.002;8.420;2022-08-30T13:19:43;100217.19;;;29.07;44.71
27587;BME280;15019;49.002;8.420;2022-08-30T13:24:52;100209.81;;;29.12;45.16
27587;BME280;15019;49.002;8.420;2022-08-30T13:27:18;100216.22;;;29.19;44.71
27587;BME280;15019;49.002;8.420;2022-08-30T13:29:43;100213.97;;;29.14;45.38
27587;BME280;15019;49.002;8.420;2022-08-30T13:32:08;100209.09;;;29.21;44.64
27587;BME280;15019;49.002;8.420;2022-08-30T13:34:34;100204.25;;;29.05;44.16
27587;BME280;15019;49.002;8.420;2022-08-30T13:36:59;100203.16;;;29.08;44.57
27587;BME280;15019;49.002;8.420;2022-08-30T13:39:25;100193.56;;;29.08;44.80
27587;BME280;15019;49.002;8.420;2022-08-30T13:41:50;100195.00;;;29.12;45.03
27587;BME280;15019;49.002;8.420;2022-08-30T13:44:15;100196.28;;;29.07;44.56
27587;BME280;15019;49.002;8.420;2022-08-30T13:46:45;100192.50;;;29.11;44.59
27587;BME280;15019;49.002;8.420;2022-08-30T13:49:14;100181.56;;;29.17;45.15
27587;BME280;15019;49.002;8.420;2022-08-30T13:51:41;100182.59;;;29.26;44.90
27587;BME280;15019;49.002;8.420;2022-08-30T13:54:07;100174.19;;;29.22;44.80
27587;BME280;15019;49.002;8.420;2022-08-30T13:56:32;100178.69;;;29.31;45.85
27587;BME280;15019;49.002;8.420;2022-08-30T13:58:58;100178.91;;;29.28;45.40
27587;BME280;15019;49.002;8.420;2022-08-30T14:01:23;100180.97;;;29.13;45.36
27587;BME280;15019;49.002;8.420;2022-08-30T14:03:48;100179.66;;;29.08;45.86
27587;BME280;15019;49.002;8.420;2022-08-30T14:06:14;100171.75;;;28.98;45.42